sensor_id;sensor_type;location;lat;lon;timestamp;pressure;altitude;pressure_sealevel;temperature;humidity
73341;BME280;61578;52.002;5.468;2022-11-15T00:00:01;100834.22;;;7.74;90.93
73341;BME280;61578;52.002;5.468;2022-11-15T00:00:31;100832.44;;;7.75;90.76
73341;BME280;61578;52.002;5.468;2022-11-15T00:01:06;100845.72;;;7.73;90.67
73341;BME280;61578;52.002;5.468;2022-11-15T00:01:38;100836.00;;;7.74;90.82
73341;BME280;61578;52.002;5.468;2022-11-15T00:02:08;100831.50;;;7.76;90.51
73341;BME280;61578;52.002;5.468;2022-11-15T00:02:39;100828.88;;;7.76;90.77
73341;BME280;61578;52.002;5.468;2022-11-15T00:03:13;100841.06;;;7.79;90.93
73341;BME280;61578;52.002;5.468;2022-11-15T00:03:45;100830.50;;;7.79;91.24
73341;BME280;61578;52.002;5.468;2022-11-15T00:04:16;100786.09;;;7.52;90.90
73341;BME280;61578;52.002;5.468;2022-11-15T00:04:47;100836.72;;;7.78;91.18
73341;BME280;61578;52.002;5.468;2022-11-15T00:05:17;100831.22;;;7.82;91.00
73341;BME280;61578;52.002;5.468;2022-11-15T00:05:49;100797.13;;;7.60;90.60
73341;BME280;61578;52.002;5.468;2022-11-15T00:06:20;100825.22;;;7.79;90.88
73341;BME280;61578;52.002;5.468;2022-11-15T00:06:50;100825.84;;;7.84;90.99
73341;BME280;61578;52.002;5.468;2022-11-15T00:07:21;100780.72;;;7.54;90.89
73341;BME280;61578;52.002;5.468;2022-11-15T00:07:52;100830.28;;;7.83;90.84
73341;BME280;61578;52.002;5.468;2022-11-15T00:08:22;100832.91;;;7.83;91.04
73341;BME280;61578;52.002;5.468;2022-11-15T00:08:53;100832.91;;;7.83;91.27
73341;BME280;61578;52.002;5.468;2022-11-15T00:09:24;100752.63;;;7.35;91.13
73341;BME280;61578;52.002;5.468;2022-11-15T00:09:55;100831.28;;;7.81;91.14
73341;BME280;61578;52.002;5.468;2022-11-15T00:10:25;100816.59;;;7.75;91.21
73341;BME280;61578;52.002;5.468;2022-11-15T00:10:58;100827.63;;;7.83;91.14
73341;BME280;61578;52.002;5.468;2022-11-15T00:11:30;100816.50;;;7.76;91.25
73341;BME280;61578;52.002;5.468;2022-11-15T00:12:00;100832.06;;;7.83;91.22
73341;BME280;61578;52.002;5.468;2022-11-15T00:12:31;100826.78;;;7.83;91.29
73341;BME280;61578;52.002;5.468;2022-11-15T00:13:12;100826.66;;;7.84;91.39
73341;BME280;61578;52.002;5.468;2022-11-15T00:13:43;100831.88;;;7.86;91.42
73341;BME280;61578;52.002;5.468;2022-11-15T00:14:14;100824.13;;;7.83;91.29
73341;BME280;61578;52.002;5.468;2022-11-15T00:14:45;100826.50;;;7.87;91.51
73341;BME280;61578;52.002;5.468;2022-11-15T00:15:15;100832.81;;;7.85;91.27
73341;BME280;61578;52.002;5.468;2022-11-15T00:15:46;100826.44;;;7.89;91.27
73341;BME280;61578;52.002;5.468;2022-11-15T00:16:17;100828.22;;;7.88;91.41
73341;BME280;61578;52.002;5.468;2022-11-15T00:16:47;100833.50;;;7.88;91.39
73341;BME280;61578;52.002;5.468;2022-11-15T00:17:18;100826.44;;;7.89;91.33
73341;BME280;61578;52.002;5.468;2022-11-15T00:17:49;100830.00;;;7.88;91.22
73341;BME280;61578;52.002;5.468;2022-11-15T00:18:20;100825.59;;;7.88;91.44
73341;BME280;61578;52.002;5.468;2022-11-15T00:18:51;100831.72;;;7.89;91.42
73341;BME280;61578;52.002;5.468;2022-11-15T00:19:21;100836.94;;;7.90;91.51
73341;BME280;61578;52.002;5.468;2022-11-15T00:19:52;100828.06;;;7.91;91.40
73341;BME280;61578;52.002;5.468;2022-11-15T00:20:23;100825.34;;;7.93;91.65
73341;BME280;61578;52.002;5.468;2022-11-15T00:20:53;100822.72;;;7.93;91.39
73341;BME280;61578;52.002;5.468;2022-11-15T00:21:24;100826.22;;;7.93;91.32
73341;BME280;61578;52.002;5.468;2022-11-15T00:21:55;100825.34;;;7.93;91.60
73341;BME280;61578;52.002;5.468;2022-11-15T00:22:31;100824.41;;;7.94;91.39
73341;BME280;61578;52.002;5.468;2022-11-15T00:23:04;100821.78;;;7.94;91.73
73341;BME280;61578;52.002;5.468;2022-11-15T00:23:35;100828.00;;;7.93;91.55
73341;BME280;61578;52.002;5.468;2022-11-15T00:24:06;100828.84;;;7.93;91.70
73341;BME280;61578;52.002;5.468;2022-11-15T00:24:37;100826.28;;;7.92;91.66
73341;BME280;61578;52.002;5.468;2022-11-15T00:25:08;100825.34;;;7.93;91.65
73341;BME280;61578;52.002;5.468;2022-11-15T00:25:39;100781.78;;;7.67;91.50
73341;BME280;61578;52.002;5.468;2022-11-15T00:26:14;100828.84;;;7.93;91.80
73341;BME280;61578;52.002;5.468;2022-11-15T00:26:45;100827.06;;;7.94;91.62
73341;BME280;61578;52.002;5.468;2022-11-15T00:27:15;100834.03;;;7.95;91.86
73341;BME280;61578;52.002;5.468;2022-11-15T00:27:49;100819.88;;;7.96;91.57
73341;BME280;61578;52.002;5.468;2022-11-15T00:28:21;100820.81;;;7.95;91.75
73341;BME280;61578;52.002;5.468;2022-11-15T00:28:52;100838.31;;;7.97;91.79
73341;BME280;61578;52.002;5.468;2022-11-15T00:29:23;100818.09;;;7.96;91.82
73341;BME280;61578;52.002;5.468;2022-11-15T00:29:57;100813.00;;;7.93;91.62
73341;BME280;61578;52.002;5.468;2022-11-15T00:30:28;100814.44;;;7.99;91.86
73341;BME280;61578;52.002;5.468;2022-11-15T00:31:03;100817.16;;;7.97;91.81
73341;BME280;61578;52.002;5.468;2022-11-15T00:31:35;100823.16;;;8.01;91.88
73341;BME280;61578;52.002;5.468;2022-11-15T00:32:06;100809.16;;;7.99;91.81
73341;BME280;61578;52.002;5.468;2022-11-15T00:32:36;100817.88;;;8.01;91.65
73341;BME280;61578;52.002;5.468;2022-11-15T00:33:08;100813.44;;;8.01;91.91
73341;BME280;61578;52.002;5.468;2022-11-15T00:33:42;100815.22;;;8.01;91.75
73341;BME280;61578;52.002;5.468;2022-11-15T00:34:14;100806.75;;;7.94;91.42
73341;BME280;61578;52.002;5.468;2022-11-15T00:34:45;100823.06;;;8.02;91.83
73341;BME280;61578;52.002;5.468;2022-11-15T00:35:16;100818.63;;;8.03;91.60
73341;BME280;61578;52.002;5.468;2022-11-15T00:35:46;100823.16;;;8.01;91.87
73341;BME280;61578;52.002;5.468;2022-11-15T00:36:17;100824.94;;;8.00;91.77
73341;BME280;61578;52.002;5.468;2022-11-15T00:36:48;100822.03;;;8.05;91.87
73341;BME280;61578;52.002;5.468;2022-11-15T00:37:19;100822.22;;;8.02;91.88
73341;BME280;61578;52.002;5.468;2022-11-15T00:37:52;100810.78;;;8.01;91.92
73341;BME280;61578;52.002;5.468;2022-11-15T00:38:23;100732.22;;;7.55;92.04
73341;BME280;61578;52.002;5.468;2022-11-15T00:38:53;100818.00;;;7.98;91.94
73341;BME280;61578;52.002;5.468;2022-11-15T00:39:24;100782.22;;;7.75;91.79
73341;BME280;61578;52.002;5.468;2022-11-15T00:39:55;100818.72;;;8.01;92.03
73341;BME280;61578;52.002;5.468;2022-11-15T00:40:26;100828.16;;;8.05;92.20
73341;BME280;61578;52.002;5.468;2022-11-15T00:40:57;100819.31;;;8.06;92.00
73341;BME280;61578;52.002;5.468;2022-11-15T00:41:28;100821.94;;;8.06;92.25
73341;BME280;61578;52.002;5.468;2022-11-15T00:41:58;100820.25;;;8.05;92.22
73341;BME280;61578;52.002;5.468;2022-11-15T00:42:29;100821.00;;;8.07;92.26
73341;BME280;61578;52.002;5.468;2022-11-15T00:43:00;100816.66;;;8.06;92.39
73341;BME280;61578;52.002;5.468;2022-11-15T00:43:30;100814.88;;;8.07;92.25
73341;BME280;61578;52.002;5.468;2022-11-15T00:44:02;100809.66;;;8.05;92.46
73341;BME280;61578;52.002;5.468;2022-11-15T00:44:33;100814.88;;;8.07;92.07
73341;BME280;61578;52.002;5.468;2022-11-15T00:45:03;100815.06;;;8.04;92.18
73341;BME280;61578;52.002;5.468;2022-11-15T00:45:34;100804.56;;;8.02;92.18
73341;BME280;61578;52.002;5.468;2022-11-15T00:46:05;100701.44;;;7.38;92.39
73341;BME280;61578;52.002;5.468;2022-11-15T00:46:38;100812.31;;;8.05;92.20
73341;BME280;61578;52.002;5.468;2022-11-15T00:47:09;100823.59;;;8.09;92.29
73341;BME280;61578;52.002;5.468;2022-11-15T00:47:39;100784.31;;;7.86;92.41
73341;BME280;61578;52.002;5.468;2022-11-15T00:48:10;100822.13;;;8.03;92.51
73341;BME280;61578;52.002;5.468;2022-11-15T00:48:41;100824.50;;;8.08;92.52
73341;BME280;61578;52.002;5.468;2022-11-15T00:49:11;100819.16;;;8.09;92.58
73341;BME280;61578;52.002;5.468;2022-11-15T00:49:42;100823.50;;;8.10;92.44
73341;BME280;61578;52.002;5.468;2022-11-15T00:50:13;100775.38;;;7.88;92.53
73341;BME280;61578;52.002;5.468;2022-11-15T00:50:44;100819.84;;;8.13;92.86
73341;BME280;61578;52.002;5.468;2022-11-15T00:51:15;100815.31;;;8.15;92.78
73341;BME280;61578;52.002;5.468;2022-11-15T00:51:46;100807.78;;;8.07;92.49
73341;BME280;61578;52.002;5.468;2022-11-15T00:52:16;100817.09;;;8.14;92.60
73341;BME280;61578;52.002;5.468;2022-11-15T00:52:47;100811.13;;;8.11;92.66
73341;BME280;61578;52.002;5.468;2022-11-15T00:53:18;100776.06;;;7.92;92.50
73341;BME280;61578;52.002;5.468;2022-11-15T00:53:48;100821.44;;;8.16;92.50
73341;BME280;61578;52.002;5.468;2022-11-15T00:54:19;100832.03;;;8.16;92.71
73341;BME280;61578;52.002;5.468;2022-11-15T00:54:50;100816.16;;;8.16;92.45
73341;BME280;61578;52.002;5.468;2022-11-15T00:55:21;100802.19;;;8.13;92.75
73341;BME280;61578;52.002;5.468;2022-11-15T00:55:51;100813.72;;;8.12;92.68
73341;BME280;61578;52.002;5.468;2022-11-15T00:56:22;100814.22;;;8.19;92.77
73341;BME280;61578;52.002;5.468;2022-11-15T00:56:52;100820.44;;;8.18;92.80
73341;BME280;61578;52.002;5.468;2022-11-15T00:57:23;100807.22;;;8.18;92.89
73341;BME280;61578;52.002;5.468;2022-11-15T00:57:54;100800.47;;;8.12;92.81
73341;BME280;61578;52.002;5.468;2022-11-15T00:58:24;100796.38;;;8.07;93.00
73341;BME280;61578;52.002;5.468;2022-11-15T00:58:55;100814.13;;;8.21;93.13
73341;BME280;61578;52.002;5.468;2022-11-15T00:59:26;100809.78;;;8.20;92.73
73341;BME280;61578;52.002;5.468;2022-11-15T00:59:56;100808.84;;;8.21;92.72
73341;BME280;61578;52.002;5.468;2022-11-15T01:00:27;100808.00;;;8.20;92.97
73341;BME280;61578;52.002;5.468;2022-11-15T01:01:10;100811.41;;;8.22;92.74
73341;BME280;61578;52.002;5.468;2022-11-15T01:01:43;100808.75;;;8.22;92.79
73341;BME280;61578;52.002;5.468;2022-11-15T01:02:13;100762.56;;;7.96;92.51
73341;BME280;61578;52.002;5.468;2022-11-15T01:02:44;100807.91;;;8.22;92.54
73341;BME280;61578;52.002;5.468;2022-11-15T01:03:15;100792.34;;;8.16;92.69
73341;BME280;61578;52.002;5.468;2022-11-15T01:03:45;100791.63;;;8.13;92.56
73341;BME280;61578;52.002;5.468;2022-11-15T01:04:16;100800.84;;;8.22;92.78
73341;BME280;61578;52.002;5.468;2022-11-15T01:04:47;100798.41;;;8.18;92.63
73341;BME280;61578;52.002;5.468;2022-11-15T01:05:17;100800.06;;;8.20;92.89
73341;BME280;61578;52.002;5.468;2022-11-15T01:05:48;100803.28;;;8.25;92.98
73341;BME280;61578;52.002;5.468;2022-11-15T01:06:19;100755.41;;;7.98;92.89
73341;BME280;61578;52.002;5.468;2022-11-15T01:06:49;100800.75;;;8.24;92.70
73341;BME280;61578;52.002;5.468;2022-11-15T01:07:20;100802.53;;;8.23;92.73
73341;BME280;61578;52.002;5.468;2022-11-15T01:07:52;100797.41;;;8.20;92.83
73341;BME280;61578;52.002;5.468;2022-11-15T01:08:23;100799.03;;;8.23;92.83
73341;BME280;61578;52.002;5.468;2022-11-15T01:08:55;100796.41;;;8.23;92.82
73341;BME280;61578;52.002;5.468;2022-11-15T01:09:26;100795.47;;;8.24;92.90
73341;BME280;61578;52.002;5.468;2022-11-15T01:09:56;100798.09;;;8.24;92.93
73341;BME280;61578;52.002;5.468;2022-11-15T01:10:27;100792.81;;;8.24;93.01
73341;BME280;61578;52.002;5.468;2022-11-15T01:11:06;100789.22;;;8.25;93.14
73341;BME280;61578;52.002;5.468;2022-11-15T01:11:39;100786.56;;;8.25;92.82
73341;BME280;61578;52.002;5.468;2022-11-15T01:12:09;100789.22;;;8.25;92.95
73341;BME280;61578;52.002;5.468;2022-11-15T01:12:40;100794.50;;;8.25;93.15
73341;BME280;61578;52.002;5.468;2022-11-15T01:13:11;100790.06;;;8.25;93.00
73341;BME280;61578;52.002;5.468;2022-11-15T01:13:42;100797.13;;;8.25;92.86
73341;BME280;61578;52.002;5.468;2022-11-15T01:14:13;100787.41;;;8.25;92.92
73341;BME280;61578;52.002;5.468;2022-11-15T01:14:44;100782.41;;;8.21;92.82
73341;BME280;61578;52.002;5.468;2022-11-15T01:15:15;100791.78;;;8.26;93.03
73341;BME280;61578;52.002;5.468;2022-11-15T01:15:45;100786.66;;;8.23;93.35
73341;BME280;61578;52.002;5.468;2022-11-15T01:16:17;100795.34;;;8.25;92.96
73341;BME280;61578;52.002;5.468;2022-11-15T01:16:48;100796.31;;;8.24;93.20
73341;BME280;61578;52.002;5.468;2022-11-15T01:17:19;100721.38;;;7.76;93.12
73341;BME280;61578;52.002;5.468;2022-11-15T01:17:50;100786.47;;;8.26;93.03
73341;BME280;61578;52.002;5.468;2022-11-15T01:18:21;100783.84;;;8.26;93.10
73341;BME280;61578;52.002;5.468;2022-11-15T01:18:51;100788.09;;;8.29;93.22
73341;BME280;61578;52.002;5.468;2022-11-15T01:19:22;100780.44;;;8.24;93.48
73341;BME280;61578;52.002;5.468;2022-11-15T01:19:53;100783.69;;;8.29;93.01
73341;BME280;61578;52.002;5.468;2022-11-15T01:20:23;100782.75;;;8.30;93.26
73341;BME280;61578;52.002;5.468;2022-11-15T01:20:54;100779.19;;;8.31;93.38
73341;BME280;61578;52.002;5.468;2022-11-15T01:21:25;100773.81;;;8.33;93.19
73341;BME280;61578;52.002;5.468;2022-11-15T01:21:56;100775.63;;;8.32;92.78
73341;BME280;61578;52.002;5.468;2022-11-15T01:22:27;100767.97;;;8.26;93.03
73341;BME280;61578;52.002;5.468;2022-11-15T01:22:57;100775.63;;;8.32;93.02
73341;BME280;61578;52.002;5.468;2022-11-15T01:23:28;100772.13;;;8.32;93.07
73341;BME280;61578;52.002;5.468;2022-11-15T01:23:59;100770.31;;;8.32;93.05
73341;BME280;61578;52.002;5.468;2022-11-15T01:24:30;100774.75;;;8.32;93.08
73341;BME280;61578;52.002;5.468;2022-11-15T01:25:00;100767.97;;;8.26;93.28
73341;BME280;61578;52.002;5.468;2022-11-15T01:25:31;100775.63;;;8.32;93.19
73341;BME280;61578;52.002;5.468;2022-11-15T01:26:04;100778.19;;;8.34;93.43
73341;BME280;61578;52.002;5.468;2022-11-15T01:26:37;100774.69;;;8.33;93.27
73341;BME280;61578;52.002;5.468;2022-11-15T01:27:08;100778.31;;;8.31;93.21
73341;BME280;61578;52.002;5.468;2022-11-15T01:27:39;100782.50;;;8.35;93.31
73341;BME280;61578;52.002;5.468;2022-11-15T01:28:09;100775.41;;;8.35;93.14
73341;BME280;61578;52.002;5.468;2022-11-15T01:28:41;100778.84;;;8.37;93.18
73341;BME280;61578;52.002;5.468;2022-11-15T01:29:12;100782.41;;;8.36;93.09
73341;BME280;61578;52.002;5.468;2022-11-15T01:29:43;100784.41;;;8.33;92.71
73341;BME280;61578;52.002;5.468;2022-11-15T01:30:14;100781.47;;;8.37;92.97
73341;BME280;61578;52.002;5.468;2022-11-15T01:30:45;100761.56;;;8.30;92.72
73341;BME280;61578;52.002;5.468;2022-11-15T01:31:18;100772.03;;;8.33;93.18
73341;BME280;61578;52.002;5.468;2022-11-15T01:31:53;100729.25;;;8.09;93.22
73341;BME280;61578;52.002;5.468;2022-11-15T01:32:24;100697.78;;;7.89;92.97
73341;BME280;61578;52.002;5.468;2022-11-15T01:32:54;100731.03;;;8.09;93.00
73341;BME280;61578;52.002;5.468;2022-11-15T01:33:25;100777.03;;;8.38;93.15
73341;BME280;61578;52.002;5.468;2022-11-15T01:33:57;100772.63;;;8.38;93.41
73341;BME280;61578;52.002;5.468;2022-11-15T01:34:27;100770.81;;;8.39;93.12
73341;BME280;61578;52.002;5.468;2022-11-15T01:34:58;100781.31;;;8.40;93.31
73341;BME280;61578;52.002;5.468;2022-11-15T01:35:29;100763.97;;;8.35;93.02
73341;BME280;61578;52.002;5.468;2022-11-15T01:36:05;100775.19;;;8.40;93.37
73341;BME280;61578;52.002;5.468;2022-11-15T01:36:42;100771.66;;;8.39;93.15
73341;BME280;61578;52.002;5.468;2022-11-15T01:37:13;100775.00;;;8.43;93.27
73341;BME280;61578;52.002;5.468;2022-11-15T01:37:43;100778.50;;;8.43;93.31
73341;BME280;61578;52.002;5.468;2022-11-15T01:38:14;100781.16;;;8.43;93.18
73341;BME280;61578;52.002;5.468;2022-11-15T01:38:45;100776.72;;;8.44;93.38
73341;BME280;61578;52.002;5.468;2022-11-15T01:39:15;100732.16;;;8.21;93.16
73341;BME280;61578;52.002;5.468;2022-11-15T01:39:47;100770.47;;;8.45;93.50
73341;BME280;61578;52.002;5.468;2022-11-15T01:40:17;100773.03;;;8.46;93.18
73341;BME280;61578;52.002;5.468;2022-11-15T01:40:49;100761.69;;;8.44;93.09
73341;BME280;61578;52.002;5.468;2022-11-15T01:41:25;100762.81;;;8.40;93.01
73341;BME280;61578;52.002;5.468;2022-11-15T01:41:58;100780.81;;;8.49;93.37
73341;BME280;61578;52.002;5.468;2022-11-15T01:42:28;100755.72;;;8.41;93.34
73341;BME280;61578;52.002;5.468;2022-11-15T01:43:18;100762.19;;;8.51;93.36
73341;BME280;61578;52.002;5.468;2022-11-15T01:43:53;100769.28;;;8.51;93.08
73341;BME280;61578;52.002;5.468;2022-11-15T01:45:02;100762.28;;;8.49;93.29
73341;BME280;61578;52.002;5.468;2022-11-15T01:45:33;100765.16;;;8.45;93.09
73341;BME280;61578;52.002;5.468;2022-11-15T01:46:47;100769.28;;;8.51;93.37
73341;BME280;61578;52.002;5.468;2022-11-15T01:47:19;100771.00;;;8.52;93.30
73341;BME280;61578;52.002;5.468;2022-11-15T01:47:55;100716.13;;;8.24;93.23
73341;BME280;61578;52.002;5.468;2022-11-15T01:48:32;100762.13;;;8.53;93.49
73341;BME280;61578;52.002;5.468;2022-11-15T01:49:13;100759.63;;;8.49;93.26
73341;BME280;61578;52.002;5.468;2022-11-15T01:50:05;100762.13;;;8.53;93.37
73341;BME280;61578;52.002;5.468;2022-11-15T01:50:42;100761.34;;;8.51;93.26
73341;BME280;61578;52.002;5.468;2022-11-15T01:51:17;100760.25;;;8.55;93.18
73341;BME280;61578;52.002;5.468;2022-11-15T01:51:51;100758.53;;;8.54;93.43
73341;BME280;61578;52.002;5.468;2022-11-15T01:52:26;100767.22;;;8.56;93.15
73341;BME280;61578;52.002;5.468;2022-11-15T01:52:59;100765.41;;;8.56;93.07
73341;BME280;61578;52.002;5.468;2022-11-15T01:53:33;100755.78;;;8.55;93.21
73341;BME280;61578;52.002;5.468;2022-11-15T01:54:14;100769.78;;;8.57;93.55
73341;BME280;61578;52.002;5.468;2022-11-15T01:55:34;100705.25;;;8.28;93.50
73341;BME280;61578;52.002;5.468;2022-11-15T01:56:09;100766.03;;;8.61;93.19
73341;BME280;61578;52.002;5.468;2022-11-15T01:57:07;100756.28;;;8.62;93.22
73341;BME280;61578;52.002;5.468;2022-11-15T01:57:43;100762.44;;;8.62;93.16
73341;BME280;61578;52.002;5.468;2022-11-15T01:58:16;100755.34;;;8.63;93.39
73341;BME280;61578;52.002;5.468;2022-11-15T01:58:47;100750.31;;;8.58;93.17
73341;BME280;61578;52.002;5.468;2022-11-15T01:59:19;100758.00;;;8.63;93.52
73341;BME280;61578;52.002;5.468;2022-11-15T01:59:50;100765.16;;;8.61;93.63
73341;BME280;61578;52.002;5.468;2022-11-15T02:00:21;100751.00;;;8.62;93.35
73341;BME280;61578;52.002;5.468;2022-11-15T02:00:52;100738.97;;;8.56;93.46
73341;BME280;61578;52.002;5.468;2022-11-15T02:01:25;100701.09;;;8.40;93.34
73341;BME280;61578;52.002;5.468;2022-11-15T02:01:57;100753.38;;;8.66;93.29
73341;BME280;61578;52.002;5.468;2022-11-15T02:02:28;100752.44;;;8.67;93.20
73341;BME280;61578;52.002;5.468;2022-11-15T02:02:59;100708.94;;;8.41;93.51
73341;BME280;61578;52.002;5.468;2022-11-15T02:04:36;100710.56;;;8.44;93.13
73341;BME280;61578;52.002;5.468;2022-11-15T02:05:10;100743.63;;;8.67;93.39
73341;BME280;61578;52.002;5.468;2022-11-15T02:05:43;100740.91;;;8.68;93.24
73341;BME280;61578;52.002;5.468;2022-11-15T02:06:14;100710.38;;;8.47;93.28
73341;BME280;61578;52.002;5.468;2022-11-15T02:06:47;100709.72;;;8.43;93.16
73341;BME280;61578;52.002;5.468;2022-11-15T02:07:20;100754.06;;;8.70;93.25
73341;BME280;61578;52.002;5.468;2022-11-15T02:07:53;100748.75;;;8.70;93.46
73341;BME280;61578;52.002;5.468;2022-11-15T02:08:24;100749.53;;;8.72;93.13
73341;BME280;61578;52.002;5.468;2022-11-15T02:08:56;100745.94;;;8.73;93.18
73341;BME280;61578;52.002;5.468;2022-11-15T02:09:29;100742.63;;;8.69;93.43
73341;BME280;61578;52.002;5.468;2022-11-15T02:10:08;100749.53;;;8.72;93.41
73341;BME280;61578;52.002;5.468;2022-11-15T02:10:40;100746.97;;;8.70;93.18
73341;BME280;61578;52.002;5.468;2022-11-15T02:11:11;100751.16;;;8.74;93.21
73341;BME280;61578;52.002;5.468;2022-11-15T02:11:44;100755.47;;;8.75;92.93
73341;BME280;61578;52.002;5.468;2022-11-15T02:12:20;100751.91;;;8.76;93.22
73341;BME280;61578;52.002;5.468;2022-11-15T02:12:54;100669.09;;;8.29;93.14
73341;BME280;61578;52.002;5.468;2022-11-15T02:13:27;100760.69;;;8.77;93.65
73341;BME280;61578;52.002;5.468;2022-11-15T02:13:59;100745.94;;;8.73;93.59
73341;BME280;61578;52.002;5.468;2022-11-15T02:14:35;100750.78;;;8.80;93.46
73341;BME280;61578;52.002;5.468;2022-11-15T02:15:09;100740.19;;;8.80;93.65
73341;BME280;61578;52.002;5.468;2022-11-15T02:18:27;100734.53;;;8.86;93.64
73341;BME280;61578;52.002;5.468;2022-11-15T02:28:04;100724.47;;;9.07;94.34
73341;BME280;61578;52.002;5.468;2022-11-15T02:29:09;100713.97;;;9.06;93.86
73341;BME280;61578;52.002;5.468;2022-11-15T02:30:03;100719.84;;;9.11;93.73
73341;BME280;61578;52.002;5.468;2022-11-15T02:30:53;100719.75;;;9.12;93.46
73341;BME280;61578;52.002;5.468;2022-11-15T02:32:17;100720.63;;;9.13;92.92
73341;BME280;61578;52.002;5.468;2022-11-15T02:32:58;100671.00;;;8.86;92.88
73341;BME280;61578;52.002;5.468;2022-11-15T02:33:49;100673.56;;;8.88;93.78
73341;BME280;61578;52.002;5.468;2022-11-15T02:35:52;100714.84;;;9.20;93.82
73341;BME280;61578;52.002;5.468;2022-11-15T02:37:57;100706.22;;;9.17;94.16
73341;BME280;61578;52.002;5.468;2022-11-15T02:38:54;100708.44;;;9.25;94.00
73341;BME280;61578;52.002;5.468;2022-11-15T02:39:46;100711.09;;;9.25;94.10
73341;BME280;61578;52.002;5.468;2022-11-15T02:41:04;100707.78;;;9.35;94.71
73341;BME280;61578;52.002;5.468;2022-11-15T02:41:48;100724.41;;;9.37;94.02
73341;BME280;61578;52.002;5.468;2022-11-15T02:42:26;100712.97;;;9.37;93.98
73341;BME280;61578;52.002;5.468;2022-11-15T02:43:29;100707.50;;;9.40;93.94
73341;BME280;61578;52.002;5.468;2022-11-15T02:44:39;100702.88;;;9.43;94.23
73341;BME280;61578;52.002;5.468;2022-11-15T02:45:31;100689.78;;;9.40;94.04
73341;BME280;61578;52.002;5.468;2022-11-15T02:46:53;100699.63;;;9.52;94.25
73341;BME280;61578;52.002;5.468;2022-11-15T02:47:46;100702.97;;;9.56;94.31
73341;BME280;61578;52.002;5.468;2022-11-15T02:48:23;100702.75;;;9.59;94.18
73341;BME280;61578;52.002;5.468;2022-11-15T02:48:56;100693.84;;;9.60;93.85
73341;BME280;61578;52.002;5.468;2022-11-15T02:49:31;100701.72;;;9.62;93.97
73341;BME280;61578;52.002;5.468;2022-11-15T02:50:09;100692.16;;;9.59;93.58
73341;BME280;61578;52.002;5.468;2022-11-15T02:50:43;100700.88;;;9.61;93.63
73341;BME280;61578;52.002;5.468;2022-11-15T02:51:16;100704.38;;;9.62;93.61
73341;BME280;61578;52.002;5.468;2022-11-15T02:51:50;100683.44;;;9.57;93.17
73341;BME280;61578;52.002;5.468;2022-11-15T02:52:24;100686.66;;;9.62;93.38
73341;BME280;61578;52.002;5.468;2022-11-15T02:52:58;100639.00;;;9.34;93.30
73341;BME280;61578;52.002;5.468;2022-11-15T02:53:29;100673.06;;;9.54;93.86
73341;BME280;61578;52.002;5.468;2022-11-15T02:54:00;100682.03;;;9.66;93.88
73341;BME280;61578;52.002;5.468;2022-11-15T02:54:32;100682.88;;;9.66;93.89
73341;BME280;61578;52.002;5.468;2022-11-15T02:55:04;100677.59;;;9.66;93.73
73341;BME280;61578;52.002;5.468;2022-11-15T02:55:38;100688.91;;;9.68;93.62
73341;BME280;61578;52.002;5.468;2022-11-15T02:56:13;100686.19;;;9.70;94.21
73341;BME280;61578;52.002;5.468;2022-11-15T02:56:45;100670.66;;;9.64;94.09
73341;BME280;61578;52.002;5.468;2022-11-15T02:57:25;100691.28;;;9.73;93.84
73341;BME280;61578;52.002;5.468;2022-11-15T02:58:29;100681.44;;;9.75;93.74
73341;BME280;61578;52.002;5.468;2022-11-15T03:00:19;100678.03;;;9.73;93.73
73341;BME280;61578;52.002;5.468;2022-11-15T03:01:04;100690.03;;;9.78;93.18
73341;BME280;61578;52.002;5.468;2022-11-15T03:03:36;100661.00;;;9.63;93.02
73341;BME280;61578;52.002;5.468;2022-11-15T03:04:44;100675.94;;;9.78;93.26
73341;BME280;61578;52.002;5.468;2022-11-15T03:05:35;100676.69;;;9.80;93.80
73341;BME280;61578;52.002;5.468;2022-11-15T03:06:41;100668.75;;;9.80;93.91
73341;BME280;61578;52.002;5.468;2022-11-15T03:08:12;100675.66;;;9.82;94.28
73341;BME280;61578;52.002;5.468;2022-11-15T03:08:23;100676.31;;;9.86;93.86
73341;BME280;61578;52.002;5.468;2022-11-15T03:09:18;100647.84;;;9.75;93.71
73341;BME280;61578;52.002;5.468;2022-11-15T03:10:10;100670.72;;;9.90;93.73
73341;BME280;61578;52.002;5.468;2022-11-15T03:12:02;100671.28;;;9.95;93.87
73341;BME280;61578;52.002;5.468;2022-11-15T03:12:41;100662.38;;;9.96;93.25
73341;BME280;61578;52.002;5.468;2022-11-15T03:13:27;100674.78;;;9.96;93.35
73341;BME280;61578;52.002;5.468;2022-11-15T03:14:25;100638.09;;;9.76;93.29
73341;BME280;61578;52.002;5.468;2022-11-15T03:16:13;100673.00;;;9.96;93.43
73341;BME280;61578;52.002;5.468;2022-11-15T03:18:01;100637.97;;;9.77;93.62
73341;BME280;61578;52.002;5.468;2022-11-15T03:18:42;100670.22;;;9.98;93.47
73341;BME280;61578;52.002;5.468;2022-11-15T03:19:40;100675.50;;;9.98;93.15
73341;BME280;61578;52.002;5.468;2022-11-15T03:20:26;100676.59;;;9.95;93.27
73341;BME280;61578;52.002;5.468;2022-11-15T03:21:06;100682.63;;;9.97;93.86
73341;BME280;61578;52.002;5.468;2022-11-15T03:21:43;100670.53;;;9.93;92.74
73341;BME280;61578;52.002;5.468;2022-11-15T03:22:21;100667.31;;;9.88;93.19
73341;BME280;61578;52.002;5.468;2022-11-15T03:23:08;100670.72;;;9.90;94.03
73341;BME280;61578;52.002;5.468;2022-11-15T03:23:41;100690.47;;;9.99;93.87
73341;BME280;61578;52.002;5.468;2022-11-15T03:24:18;100675.72;;;9.95;94.08
73341;BME280;61578;52.002;5.468;2022-11-15T03:24:56;100683.09;;;10.04;94.54
73341;BME280;61578;52.002;5.468;2022-11-15T03:25:34;100653.19;;;9.88;94.21
73341;BME280;61578;52.002;5.468;2022-11-15T03:26:13;100697.13;;;10.06;93.72
73341;BME280;61578;52.002;5.468;2022-11-15T03:26:52;100683.72;;;10.08;93.89
73341;BME280;61578;52.002;5.468;2022-11-15T03:27:34;100605.44;;;9.61;93.59
73341;BME280;61578;52.002;5.468;2022-11-15T03:28:18;100687.16;;;10.10;94.03
73341;BME280;61578;52.002;5.468;2022-11-15T03:29:03;100685.25;;;10.12;93.73